sensor_id;sensor_type;location;lat;lon;timestamp;P1;durP1;ratioP1;P2;durP2;ratioP2
69220;SDS011;56331;51.992;20.910;2022-10-10T00:01:21;9.95;;;6.87;;
69220;SDS011;56331;51.992;20.910;2022-10-10T00:03:48;8.58;;;6.35;;
69220;SDS011;56331;51.992;20.910;2022-10-10T00:06:15;8.43;;;6.25;;
69220;SDS011;56331;51.992;20.910;2022-10-10T00:08:42;8.83;;;6.62;;
69220;SDS011;56331;51.992;20.910;2022-10-10T00:11:09;9.48;;;6.92;;
69220;SDS011;56331;51.992;20.910;2022-10-10T00:13:37;9.58;;;6.75;;
69220;SDS011;56331;51.992;20.910;2022-10-10T00:16:04;9.53;;;6.97;;
69220;SDS011;56331;51.992;20.910;2022-10-10T00:18:31;8.68;;;6.30;;
69220;SDS011;56331;51.992;20.910;2022-10-10T00:20:57;9.70;;;6.62;;
69220;SDS011;56331;51.992;20.910;2022-10-10T00:23:24;8.98;;;6.40;;
69220;SDS011;56331;51.992;20.910;2022-10-10T00:25:50;8.90;;;6.50;;
69220;SDS011;56331;51.992;20.910;2022-10-10T00:28:17;8.10;;;5.62;;
69220;SDS011;56331;51.992;20.910;2022-10-10T00:30:43;7.97;;;6.10;;
69220;SDS011;56331;51.992;20.910;2022-10-10T00:33:10;8.75;;;6.62;;
69220;SDS011;56331;51.992;20.910;2022-10-10T00:35:36;9.35;;;6.45;;
69220;SDS011;56331;51.992;20.910;2022-10-10T00:38:03;9.23;;;6.75;;
69220;SDS011;56331;51.992;20.910;2022-10-10T00:40:30;7.22;;;6.00;;
69220;SDS011;56331;51.992;20.910;2022-10-10T00:42:56;9.78;;;6.53;;
69220;SDS011;56331;51.992;20.910;2022-10-10T00:45:25;7.62;;;6.22;;
69220;SDS011;56331;51.992;20.910;2022-10-10T00:47:59;7.83;;;6.17;;
69220;SDS011;56331;51.992;20.910;2022-10-10T00:52:50;10.58;;;6.47;;
69220;SDS011;56331;51.992;20.910;2022-10-10T00:55:17;8.75;;;5.95;;
69220;SDS011;56331;51.992;20.910;2022-10-10T00:57:44;10.23;;;6.50;;
69220;SDS011;56331;51.992;20.910;2022-10-10T01:00:11;8.13;;;6.30;;
69220;SDS011;56331;51.992;20.910;2022-10-10T01:02:38;7.45;;;5.97;;
69220;SDS011;56331;51.992;20.910;2022-10-10T01:05:04;8.43;;;6.40;;
69220;SDS011;56331;51.992;20.910;2022-10-10T01:07:31;8.05;;;5.90;;
69220;SDS011;56331;51.992;20.910;2022-10-10T01:10:00;8.78;;;6.30;;
69220;SDS011;56331;51.992;20.910;2022-10-10T01:17:40;8.48;;;6.30;;
69220;SDS011;56331;51.992;20.910;2022-10-10T01:25:30;7.65;;;5.72;;
69220;SDS011;56331;51.992;20.910;2022-10-10T01:30:27;7.92;;;5.75;;
69220;SDS011;56331;51.992;20.910;2022-10-10T01:32:58;9.55;;;6.33;;
69220;SDS011;56331;51.992;20.910;2022-10-10T01:38:07;8.88;;;6.15;;
69220;SDS011;56331;51.992;20.910;2022-10-10T01:40:57;9.30;;;6.20;;
69220;SDS011;56331;51.992;20.910;2022-10-10T01:43:31;10.63;;;6.50;;
69220;SDS011;56331;51.992;20.910;2022-10-10T01:45:58;10.03;;;6.33;;
69220;SDS011;56331;51.992;20.910;2022-10-10T01:48:28;9.28;;;6.30;;
69220;SDS011;56331;51.992;20.910;2022-10-10T02:05:15;8.25;;;6.67;;
69220;SDS011;56331;51.992;20.910;2022-10-10T02:10:27;8.83;;;6.60;;
69220;SDS011;56331;51.992;20.910;2022-10-10T02:12:57;7.58;;;6.00;;
69220;SDS011;56331;51.992;20.910;2022-10-10T02:15:28;8.03;;;6.37;;
69220;SDS011;56331;51.992;20.910;2022-10-10T02:20:24;6.95;;;5.33;;
69220;SDS011;56331;51.992;20.910;2022-10-10T02:22:53;8.08;;;5.95;;
69220;SDS011;56331;51.992;20.910;2022-10-10T02:25:23;8.93;;;6.53;;
69220;SDS011;56331;51.992;20.910;2022-10-10T02:30:27;8.85;;;6.25;;
69220;SDS011;56331;51.992;20.910;2022-10-10T02:32:55;7.72;;;5.80;;
69220;SDS011;56331;51.992;20.910;2022-10-10T02:35:29;9.00;;;6.97;;
69220;SDS011;56331;51.992;20.910;2022-10-10T02:37:58;8.48;;;6.55;;
69220;SDS011;56331;51.992;20.910;2022-10-10T02:40:30;7.37;;;6.12;;
69220;SDS011;56331;51.992;20.910;2022-10-10T02:42:59;8.43;;;6.50;;
69220;SDS011;56331;51.992;20.910;2022-10-10T02:45:27;8.80;;;6.70;;
69220;SDS011;56331;51.992;20.910;2022-10-10T02:47:55;8.23;;;6.20;;
69220;SDS011;56331;51.992;20.910;2022-10-10T02:50:21;7.75;;;6.22;;
69220;SDS011;56331;51.992;20.910;2022-10-10T02:52:48;9.75;;;6.97;;
69220;SDS011;56331;51.992;20.910;2022-10-10T02:55:14;9.45;;;6.45;;
69220;SDS011;56331;51.992;20.910;2022-10-10T02:57:41;8.90;;;6.15;;
69220;SDS011;56331;51.992;20.910;2022-10-10T03:00:09;7.25;;;5.45;;
69220;SDS011;56331;51.992;20.910;2022-10-10T03:02:37;8.48;;;6.65;;
69220;SDS011;56331;51.992;20.910;2022-10-10T03:05:03;8.38;;;6.40;;
69220;SDS011;56331;51.992;20.910;2022-10-10T03:07:30;8.20;;;5.97;;
69220;SDS011;56331;51.992;20.910;2022-10-10T03:09:56;7.75;;;6.28;;
69220;SDS011;56331;51.992;20.910;2022-10-10T03:12:22;8.25;;;6.40;;
69220;SDS011;56331;51.992;20.910;2022-10-10T03:14:49;9.00;;;6.60;;
69220;SDS011;56331;51.992;20.910;2022-10-10T03:17:15;8.80;;;6.25;;
69220;SDS011;56331;51.992;20.910;2022-10-10T03:19:41;8.25;;;6.50;;
69220;SDS011;56331;51.992;20.910;2022-10-10T03:22:09;9.33;;;6.40;;
69220;SDS011;56331;51.992;20.910;2022-10-10T03:24:35;8.63;;;6.17;;
69220;SDS011;56331;51.992;20.910;2022-10-10T03:27:02;8.65;;;6.30;;
69220;SDS011;56331;51.992;20.910;2022-10-10T03:29:28;8.38;;;6.10;;
69220;SDS011;56331;51.992;20.910;2022-10-10T03:31:54;9.18;;;6.20;;
69220;SDS011;56331;51.992;20.910;2022-10-10T03:34:21;8.40;;;6.30;;
69220;SDS011;56331;51.992;20.910;2022-10-10T03:36:47;8.30;;;6.00;;
69220;SDS011;56331;51.992;20.910;2022-10-10T03:39:14;7.70;;;5.70;;
69220;SDS011;56331;51.992;20.910;2022-10-10T03:41:40;7.85;;;5.97;;
69220;SDS011;56331;51.992;20.910;2022-10-10T03:44:06;8.73;;;6.12;;
69220;SDS011;56331;51.992;20.910;2022-10-10T03:46:33;7.90;;;5.72;;
69220;SDS011;56331;51.992;20.910;2022-10-10T03:48:59;8.43;;;6.03;;
69220;SDS011;56331;51.992;20.910;2022-10-10T03:51:25;6.60;;;5.75;;
69220;SDS011;56331;51.992;20.910;2022-10-10T03:53:53;8.05;;;6.15;;
69220;SDS011;56331;51.992;20.910;2022-10-10T03:56:19;6.92;;;5.60;;
69220;SDS011;56331;51.992;20.910;2022-10-10T03:58:45;7.58;;;5.95;;
69220;SDS011;56331;51.992;20.910;2022-10-10T04:01:12;8.28;;;5.97;;
69220;SDS011;56331;51.992;20.910;2022-10-10T04:03:38;6.65;;;5.58;;
69220;SDS011;56331;51.992;20.910;2022-10-10T04:06:06;6.62;;;5.75;;
69220;SDS011;56331;51.992;20.910;2022-10-10T04:08:32;7.83;;;5.50;;
69220;SDS011;56331;51.992;20.910;2022-10-10T04:10:59;7.80;;;5.75;;
69220;SDS011;56331;51.992;20.910;2022-10-10T04:13:25;6.42;;;5.17;;
69220;SDS011;56331;51.992;20.910;2022-10-10T04:15:52;6.60;;;5.42;;
69220;SDS011;56331;51.992;20.910;2022-10-10T04:18:20;7.35;;;5.50;;
69220;SDS011;56331;51.992;20.910;2022-10-10T04:20:47;7.92;;;5.70;;
69220;SDS011;56331;51.992;20.910;2022-10-10T04:23:16;7.65;;;5.85;;
69220;SDS011;56331;51.992;20.910;2022-10-10T04:25:42;7.75;;;5.37;;
69220;SDS011;56331;51.992;20.910;2022-10-10T04:28:13;6.72;;;5.65;;
69220;SDS011;56331;51.992;20.910;2022-10-10T04:30:42;6.95;;;5.30;;
69220;SDS011;56331;51.992;20.910;2022-10-10T04:33:08;6.83;;;4.95;;
69220;SDS011;56331;51.992;20.910;2022-10-10T04:35:34;5.75;;;4.78;;
69220;SDS011;56331;51.992;20.910;2022-10-10T04:38:01;6.33;;;5.12;;
69220;SDS011;56331;51.992;20.910;2022-10-10T04:40:27;6.72;;;5.10;;
69220;SDS011;56331;51.992;20.910;2022-10-10T04:42:54;5.78;;;5.03;;
69220;SDS011;56331;51.992;20.910;2022-10-10T04:45:20;6.40;;;5.20;;
69220;SDS011;56331;51.992;20.910;2022-10-10T04:47:49;6.95;;;5.15;;
69220;SDS011;56331;51.992;20.910;2022-10-10T04:50:15;7.50;;;5.22;;
69220;SDS011;56331;51.992;20.910;2022-10-10T04:52:42;5.62;;;4.75;;
69220;SDS011;56331;51.992;20.910;2022-10-10T04:55:08;5.87;;;4.58;;
69220;SDS011;56331;51.992;20.910;2022-10-10T04:57:35;6.65;;;5.05;;
69220;SDS011;56331;51.992;20.910;2022-10-10T05:00:02;7.80;;;4.90;;
69220;SDS011;56331;51.992;20.910;2022-10-10T05:02:32;6.80;;;5.20;;
69220;SDS011;56331;51.992;20.910;2022-10-10T05:04:58;7.20;;;5.60;;
69220;SDS011;56331;51.992;20.910;2022-10-10T05:07:25;6.50;;;4.87;;
69220;SDS011;56331;51.992;20.910;2022-10-10T05:09:51;5.42;;;4.37;;
69220;SDS011;56331;51.992;20.910;2022-10-10T05:12:18;6.92;;;4.83;;
69220;SDS011;56331;51.992;20.910;2022-10-10T05:14:45;6.28;;;5.00;;
69220;SDS011;56331;51.992;20.910;2022-10-10T05:17:11;7.15;;;5.12;;
69220;SDS011;56331;51.992;20.910;2022-10-10T05:19:38;5.17;;;4.30;;
69220;SDS011;56331;51.992;20.910;2022-10-10T05:22:04;7.08;;;5.20;;
69220;SDS011;56331;51.992;20.910;2022-10-10T05:24:31;6.67;;;5.12;;
69220;SDS011;56331;51.992;20.910;2022-10-10T05:26:57;7.25;;;5.55;;
69220;SDS011;56331;51.992;20.910;2022-10-10T05:29:24;7.87;;;5.00;;
69220;SDS011;56331;51.992;20.910;2022-10-10T05:31:54;6.67;;;4.95;;
69220;SDS011;56331;51.992;20.910;2022-10-10T05:34:24;6.45;;;5.00;;
69220;SDS011;56331;51.992;20.910;2022-10-10T05:36:50;6.65;;;5.45;;
69220;SDS011;56331;51.992;20.910;2022-10-10T05:39:16;7.22;;;5.40;;
69220;SDS011;56331;51.992;20.910;2022-10-10T05:41:42;7.33;;;5.47;;
69220;SDS011;56331;51.992;20.910;2022-10-10T05:44:08;7.10;;;5.17;;
69220;SDS011;56331;51.992;20.910;2022-10-10T05:46:35;7.75;;;5.12;;
69220;SDS011;56331;51.992;20.910;2022-10-10T05:49:01;7.47;;;4.97;;
69220;SDS011;56331;51.992;20.910;2022-10-10T05:51:27;6.35;;;5.22;;
69220;SDS011;56331;51.992;20.910;2022-10-10T05:53:55;7.90;;;4.90;;
69220;SDS011;56331;51.992;20.910;2022-10-10T05:56:22;7.25;;;5.03;;
69220;SDS011;56331;51.992;20.910;2022-10-10T05:58:49;5.83;;;4.65;;
69220;SDS011;56331;51.992;20.910;2022-10-10T06:01:16;7.17;;;5.33;;
69220;SDS011;56331;51.992;20.910;2022-10-10T06:03:43;6.40;;;5.53;;
69220;SDS011;56331;51.992;20.910;2022-10-10T06:06:09;7.78;;;6.00;;
69220;SDS011;56331;51.992;20.910;2022-10-10T06:08:35;7.37;;;5.60;;
69220;SDS011;56331;51.992;20.910;2022-10-10T06:11:03;7.72;;;6.08;;
69220;SDS011;56331;51.992;20.910;2022-10-10T06:13:32;7.47;;;5.70;;
69220;SDS011;56331;51.992;20.910;2022-10-10T06:15:59;7.45;;;5.92;;
69220;SDS011;56331;51.992;20.910;2022-10-10T06:18:26;7.08;;;5.33;;
69220;SDS011;56331;51.992;20.910;2022-10-10T06:20:59;6.87;;;5.65;;
69220;SDS011;56331;51.992;20.910;2022-10-10T06:23:27;9.03;;;5.53;;
69220;SDS011;56331;51.992;20.910;2022-10-10T06:25:54;7.70;;;5.80;;
69220;SDS011;56331;51.992;20.910;2022-10-10T06:28:21;6.53;;;5.22;;
69220;SDS011;56331;51.992;20.910;2022-10-10T06:30:48;8.28;;;5.20;;
69220;SDS011;56331;51.992;20.910;2022-10-10T06:33:15;6.83;;;5.22;;
69220;SDS011;56331;51.992;20.910;2022-10-10T06:35:44;6.42;;;5.00;;
69220;SDS011;56331;51.992;20.910;2022-10-10T06:38:13;6.05;;;4.90;;
69220;SDS011;56331;51.992;20.910;2022-10-10T06:40:40;5.60;;;4.78;;
69220;SDS011;56331;51.992;20.910;2022-10-10T06:43:08;7.55;;;5.17;;
69220;SDS011;56331;51.992;20.910;2022-10-10T06:45:39;6.62;;;5.05;;
69220;SDS011;56331;51.992;20.910;2022-10-10T06:48:08;7.40;;;5.20;;
69220;SDS011;56331;51.992;20.910;2022-10-10T06:50:35;6.08;;;4.97;;
69220;SDS011;56331;51.992;20.910;2022-10-10T06:53:02;5.55;;;4.55;;
69220;SDS011;56331;51.992;20.910;2022-10-10T06:55:28;6.12;;;4.70;;
69220;SDS011;56331;51.992;20.910;2022-10-10T06:57:55;5.78;;;4.53;;
69220;SDS011;56331;51.992;20.910;2022-10-10T07:00:22;5.80;;;4.30;;
69220;SDS011;56331;51.992;20.910;2022-10-10T07:02:49;5.50;;;4.37;;
69220;SDS011;56331;51.992;20.910;2022-10-10T07:05:16;5.50;;;4.17;;
69220;SDS011;56331;51.992;20.910;2022-10-10T07:07:43;6.45;;;4.20;;
69220;SDS011;56331;51.992;20.910;2022-10-10T07:10:11;5.33;;;4.28;;
69220;SDS011;56331;51.992;20.910;2022-10-10T07:12:39;5.47;;;4.45;;
69220;SDS011;56331;51.992;20.910;2022-10-10T07:15:06;5.47;;;4.28;;
69220;SDS011;56331;51.992;20.910;2022-10-10T07:17:33;5.87;;;4.00;;
69220;SDS011;56331;51.992;20.910;2022-10-10T07:19:59;5.55;;;4.30;;
69220;SDS011;56331;51.992;20.910;2022-10-10T07:22:25;5.22;;;4.03;;
69220;SDS011;56331;51.992;20.910;2022-10-10T07:24:52;4.90;;;4.05;;
69220;SDS011;56331;51.992;20.910;2022-10-10T07:27:19;5.90;;;4.47;;
69220;SDS011;56331;51.992;20.910;2022-10-10T07:29:45;5.10;;;4.20;;
69220;SDS011;56331;51.992;20.910;2022-10-10T07:32:11;8.90;;;4.25;;
69220;SDS011;56331;51.992;20.910;2022-10-10T07:34:38;4.62;;;3.67;;
69220;SDS011;56331;51.992;20.910;2022-10-10T07:37:04;5.80;;;3.60;;
69220;SDS011;56331;51.992;20.910;2022-10-10T07:39:31;5.30;;;3.90;;
69220;SDS011;56331;51.992;20.910;2022-10-10T07:41:57;4.05;;;3.65;;
69220;SDS011;56331;51.992;20.910;2022-10-10T07:44:24;4.20;;;3.47;;
69220;SDS011;56331;51.992;20.910;2022-10-10T07:46:50;3.98;;;3.42;;
69220;SDS011;56331;51.992;20.910;2022-10-10T07:49:16;5.30;;;3.90;;
69220;SDS011;56331;51.992;20.910;2022-10-10T07:51:43;3.95;;;3.55;;
69220;SDS011;56331;51.992;20.910;2022-10-10T07:54:09;4.25;;;3.70;;
69220;SDS011;56331;51.992;20.910;2022-10-10T07:56:35;4.80;;;3.40;;
69220;SDS011;56331;51.992;20.910;2022-10-10T07:59:02;4.50;;;3.77;;
69220;SDS011;56331;51.992;20.910;2022-10-10T08:01:28;4.20;;;3.30;;
69220;SDS011;56331;51.992;20.910;2022-10-10T08:03:54;4.28;;;3.37;;
69220;SDS011;56331;51.992;20.910;2022-10-10T08:06:21;3.55;;;3.17;;
69220;SDS011;56331;51.992;20.910;2022-10-10T08:08:48;3.45;;;2.92;;
69220;SDS011;56331;51.992;20.910;2022-10-10T08:11:15;3.40;;;3.02;;
69220;SDS011;56331;51.992;20.910;2022-10-10T08:13:42;5.75;;;3.30;;
69220;SDS011;56331;51.992;20.910;2022-10-10T08:16:09;7.45;;;4.03;;
69220;SDS011;56331;51.992;20.910;2022-10-10T08:18:35;4.80;;;3.52;;
69220;SDS011;56331;51.992;20.910;2022-10-10T08:21:07;8.90;;;5.00;;
69220;SDS011;56331;51.992;20.910;2022-10-10T08:23:31;6.53;;;4.33;;
69220;SDS011;56331;51.992;20.910;2022-10-10T08:26:02;7.50;;;4.05;;
69220;SDS011;56331;51.992;20.910;2022-10-10T08:28:29;7.42;;;4.20;;
69220;SDS011;56331;51.992;20.910;2022-10-10T08:30:56;6.95;;;4.22;;
69220;SDS011;56331;51.992;20.910;2022-10-10T08:33:26;8.88;;;3.98;;
69220;SDS011;56331;51.992;20.910;2022-10-10T08:35:53;6.90;;;4.03;;
69220;SDS011;56331;51.992;20.910;2022-10-10T08:38:20;7.10;;;4.30;;
69220;SDS011;56331;51.992;20.910;2022-10-10T08:40:47;7.70;;;4.35;;
69220;SDS011;56331;51.992;20.910;2022-10-10T08:43:20;7.97;;;4.50;;
69220;SDS011;56331;51.992;20.910;2022-10-10T08:45:48;7.87;;;4.35;;
69220;SDS011;56331;51.992;20.910;2022-10-10T08:48:20;7.45;;;3.87;;
69220;SDS011;56331;51.992;20.910;2022-10-10T08:55:56;8.25;;;5.12;;
69220;SDS011;56331;51.992;20.910;2022-10-10T08:58:32;6.17;;;4.05;;
69220;SDS011;56331;51.992;20.910;2022-10-10T09:01:06;8.50;;;4.22;;
69220;SDS011;56331;51.992;20.910;2022-10-10T09:09:30;8.30;;;4.50;;
69220;SDS011;56331;51.992;20.910;2022-10-10T09:14:44;10.35;;;5.10;;
69220;SDS011;56331;51.992;20.910;2022-10-10T09:23:00;14.70;;;7.45;;
69220;SDS011;56331;51.992;20.910;2022-10-10T09:25:36;18.35;;;7.58;;
69220;SDS011;56331;51.992;20.910;2022-10-10T09:28:06;17.02;;;8.30;;
69220;SDS011;56331;51.992;20.910;2022-10-10T09:30:44;18.45;;;7.37;;
69220;SDS011;56331;51.992;20.910;2022-10-10T09:35:44;17.00;;;7.58;;
69220;SDS011;56331;51.992;20.910;2022-10-10T09:40:53;12.60;;;6.60;;
69220;SDS011;56331;51.992;20.910;2022-10-10T09:43:23;11.60;;;6.12;;
69220;SDS011;56331;51.992;20.910;2022-10-10T09:45:53;15.13;;;6.90;;
69220;SDS011;56331;51.992;20.910;2022-10-10T09:48:33;13.50;;;5.97;;
69220;SDS011;56331;51.992;20.910;2022-10-10T09:50:56;13.40;;;6.37;;
69220;SDS011;56331;51.992;20.910;2022-10-10T09:53:23;16.12;;;5.80;;
69220;SDS011;56331;51.992;20.910;2022-10-10T09:55:50;11.03;;;4.90;;
69220;SDS011;56331;51.992;20.910;2022-10-10T09:58:38;11.28;;;5.10;;
69220;SDS011;56331;51.992;20.910;2022-10-10T10:01:17;11.20;;;5.22;;
69220;SDS011;56331;51.992;20.910;2022-10-10T10:06:34;8.83;;;4.87;;
69220;SDS011;56331;51.992;20.910;2022-10-10T10:09:02;7.55;;;4.53;;
69220;SDS011;56331;51.992;20.910;2022-10-10T10:11:36;9.40;;;5.08;;
69220;SDS011;56331;51.992;20.910;2022-10-10T10:14:01;11.08;;;4.90;;
69220;SDS011;56331;51.992;20.910;2022-10-10T10:16:32;10.35;;;5.00;;
69220;SDS011;56331;51.992;20.910;2022-10-10T10:19:01;10.65;;;4.92;;
69220;SDS011;56331;51.992;20.910;2022-10-10T10:21:29;11.33;;;4.67;;
69220;SDS011;56331;51.992;20.910;2022-10-10T10:23:57;10.45;;;4.30;;
69220;SDS011;56331;51.992;20.910;2022-10-10T10:26:27;10.70;;;4.87;;
69220;SDS011;56331;51.992;20.910;2022-10-10T10:28:56;8.18;;;4.55;;
69220;SDS011;56331;51.992;20.910;2022-10-10T10:31:28;7.55;;;3.75;;
69220;SDS011;56331;51.992;20.910;2022-10-10T10:34:05;6.67;;;4.08;;
69220;SDS011;56331;51.992;20.910;2022-10-10T10:39:40;8.48;;;4.50;;
69220;SDS011;56331;51.992;20.910;2022-10-10T10:42:14;10.85;;;4.15;;
69220;SDS011;56331;51.992;20.910;2022-10-10T10:47:19;6.80;;;4.15;;
69220;SDS011;56331;51.992;20.910;2022-10-10T11:00:51;9.00;;;4.28;;
69220;SDS011;56331;51.992;20.910;2022-10-10T11:06:10;7.87;;;4.10;;
69220;SDS011;56331;51.992;20.910;2022-10-10T11:08:50;7.47;;;4.55;;
69220;SDS011;56331;51.992;20.910;2022-10-10T11:14:28;11.45;;;4.12;;
69220;SDS011;56331;51.992;20.910;2022-10-10T11:17:19;7.08;;;4.08;;
69220;SDS011;56331;51.992;20.910;2022-10-10T11:19:46;7.22;;;3.98;;
69220;SDS011;56331;51.992;20.910;2022-10-10T11:22:33;7.80;;;4.40;;
69220;SDS011;56331;51.992;20.910;2022-10-10T11:30:38;9.18;;;4.42;;
69220;SDS011;56331;51.992;20.910;2022-10-10T11:46:15;6.85;;;3.35;;
69220;SDS011;56331;51.992;20.910;2022-10-10T11:48:54;7.58;;;4.30;;
69220;SDS011;56331;51.992;20.910;2022-10-10T11:51:40;5.92;;;3.70;;
69220;SDS011;56331;51.992;20.910;2022-10-10T11:54:19;5.80;;;3.33;;
69220;SDS011;56331;51.992;20.910;2022-10-10T11:57:04;5.08;;;3.50;;
69220;SDS011;56331;51.992;20.910;2022-10-10T12:02:00;6.97;;;3.80;;
69220;SDS011;56331;51.992;20.910;2022-10-10T12:04:33;8.05;;;3.55;;
69220;SDS011;56331;51.992;20.910;2022-10-10T12:07:03;6.95;;;3.50;;
69220;SDS011;56331;51.992;20.910;2022-10-10T12:16:56;5.15;;;2.95;;
69220;SDS011;56331;51.992;20.910;2022-10-10T12:19:24;5.80;;;2.83;;
69220;SDS011;56331;51.992;20.910;2022-10-10T12:37:21;5.03;;;2.30;;
69220;SDS011;56331;51.992;20.910;2022-10-10T12:47:57;4.33;;;2.40;;
69220;SDS011;56331;51.992;20.910;2022-10-10T12:52:56;3.45;;;2.20;;
69220;SDS011;56331;51.992;20.910;2022-10-10T12:55:26;3.65;;;2.22;;
69220;SDS011;56331;51.992;20.910;2022-10-10T12:57:58;2.92;;;1.80;;
69220;SDS011;56331;51.992;20.910;2022-10-10T13:00:37;3.40;;;1.80;;
69220;SDS011;56331;51.992;20.910;2022-10-10T13:03:09;2.52;;;1.87;;
69220;SDS011;56331;51.992;20.910;2022-10-10T13:05:38;3.33;;;1.82;;
69220;SDS011;56331;51.992;20.910;2022-10-10T13:08:06;3.72;;;1.90;;
69220;SDS011;56331;51.992;20.910;2022-10-10T13:10:35;3.50;;;1.80;;
69220;SDS011;56331;51.992;20.910;2022-10-10T13:13:02;3.62;;;2.00;;
69220;SDS011;56331;51.992;20.910;2022-10-10T13:15:34;2.15;;;1.77;;
69220;SDS011;56331;51.992;20.910;2022-10-10T13:18:00;3.10;;;1.75;;
69220;SDS011;56331;51.992;20.910;2022-10-10T13:20:36;3.62;;;1.90;;
69220;SDS011;56331;51.992;20.910;2022-10-10T13:23:10;4.83;;;2.05;;
69220;SDS011;56331;51.992;20.910;2022-10-10T13:25:39;4.12;;;1.98;;
69220;SDS011;56331;51.992;20.910;2022-10-10T13:28:17;5.90;;;2.12;;
69220;SDS011;56331;51.992;20.910;2022-10-10T13:30:45;6.80;;;3.15;;
69220;SDS011;56331;51.992;20.910;2022-10-10T13:33:15;10.43;;;4.85;;
69220;SDS011;56331;51.992;20.910;2022-10-10T13:35:43;12.98;;;5.90;;
69220;SDS011;56331;51.992;20.910;2022-10-10T13:38:12;15.08;;;6.12;;
69220;SDS011;56331;51.992;20.910;2022-10-10T13:40:40;15.93;;;6.72;;
69220;SDS011;56331;51.992;20.910;2022-10-10T13:43:16;21.37;;;7.42;;
69220;SDS011;56331;51.992;20.910;2022-10-10T13:45:47;22.87;;;8.20;;
69220;SDS011;56331;51.992;20.910;2022-10-10T13:50:52;18.48;;;7.92;;
69220;SDS011;56331;51.992;20.910;2022-10-10T13:58:26;23.55;;;8.60;;
69220;SDS011;56331;51.992;20.910;2022-10-10T14:00:56;22.15;;;9.15;;
69220;SDS011;56331;51.992;20.910;2022-10-10T14:03:26;21.10;;;8.85;;
69220;SDS011;56331;51.992;20.910;2022-10-10T14:05:54;27.45;;;8.25;;
69220;SDS011;56331;51.992;20.910;2022-10-10T14:08:23;22.82;;;9.08;;
69220;SDS011;56331;51.992;20.910;2022-10-10T14:11:00;17.05;;;7.47;;
69220;SDS011;56331;51.992;20.910;2022-10-10T14:13:29;22.80;;;8.80;;
69220;SDS011;56331;51.992;20.910;2022-10-10T14:16:08;17.87;;;7.53;;
69220;SDS011;56331;51.992;20.910;2022-10-10T14:18:37;21.37;;;8.63;;
69220;SDS011;56331;51.992;20.910;2022-10-10T14:21:03;17.90;;;7.20;;
69220;SDS011;56331;51.992;20.910;2022-10-10T14:23:30;17.35;;;7.30;;
69220;SDS011;56331;51.992;20.910;2022-10-10T14:25:56;18.52;;;7.20;;
69220;SDS011;56331;51.992;20.910;2022-10-10T14:28:24;16.60;;;7.95;;
69220;SDS011;56331;51.992;20.910;2022-10-10T14:30:52;13.98;;;6.85;;
69220;SDS011;56331;51.992;20.910;2022-10-10T14:33:19;13.93;;;6.45;;
69220;SDS011;56331;51.992;20.910;2022-10-10T14:35:47;13.65;;;6.40;;
69220;SDS011;56331;51.992;20.910;2022-10-10T14:38:16;13.83;;;6.28;;
69220;SDS011;56331;51.992;20.910;2022-10-10T14:40:44;14.40;;;6.03;;
69220;SDS011;56331;51.992;20.910;2022-10-10T14:45:38;14.15;;;5.12;;
69220;SDS011;56331;51.992;20.910;2022-10-10T14:48:05;12.18;;;5.55;;
69220;SDS011;56331;51.992;20.910;2022-10-10T14:50:37;12.00;;;5.10;;
69220;SDS011;56331;51.992;20.910;2022-10-10T14:53:09;10.60;;;4.55;;
69220;SDS011;56331;51.992;20.910;2022-10-10T14:55:35;9.53;;;4.72;;
69220;SDS011;56331;51.992;20.910;2022-10-10T14:58:02;9.83;;;4.58;;
69220;SDS011;56331;51.992;20.910;2022-10-10T15:00:29;9.88;;;4.50;;
69220;SDS011;56331;51.992;20.910;2022-10-10T15:02:55;9.45;;;4.35;;
69220;SDS011;56331;51.992;20.910;2022-10-10T15:05:22;10.00;;;4.40;;
69220;SDS011;56331;51.992;20.910;2022-10-10T15:07:48;9.53;;;3.98;;
69220;SDS011;56331;51.992;20.910;2022-10-10T15:10:16;10.13;;;3.87;;
69220;SDS011;56331;51.992;20.910;2022-10-10T15:12:43;8.75;;;3.77;;
69220;SDS011;56331;51.992;20.910;2022-10-10T15:15:10;6.37;;;3.50;;
69220;SDS011;56331;51.992;20.910;2022-10-10T15:17:38;8.28;;;3.37;;
69220;SDS011;56331;51.992;20.910;2022-10-10T15:20:05;7.53;;;3.55;;
69220;SDS011;56331;51.992;20.910;2022-10-10T15:22:33;9.13;;;3.98;;
69220;SDS011;56331;51.992;20.910;2022-10-10T15:25:00;6.67;;;3.58;;
69220;SDS011;56331;51.992;20.910;2022-10-10T15:27:26;7.72;;;3.75;;
69220;SDS011;56331;51.992;20.910;2022-10-10T15:29:53;6.67;;;3.75;;
69220;SDS011;56331;51.992;20.910;2022-10-10T15:32:19;5.53;;;3.22;;
69220;SDS011;56331;51.992;20.910;2022-10-10T15:34:46;6.12;;;3.50;;
69220;SDS011;56331;51.992;20.910;2022-10-10T15:37:14;6.45;;;3.33;;
69220;SDS011;56331;51.992;20.910;2022-10-10T15:39:40;5.62;;;3.20;;
69220;SDS011;56331;51.992;20.910;2022-10-10T15:42:08;6.15;;;3.20;;
69220;SDS011;56331;51.992;20.910;2022-10-10T15:44:35;5.72;;;2.87;;
69220;SDS011;56331;51.992;20.910;2022-10-10T15:47:02;7.97;;;3.25;;
69220;SDS011;56331;51.992;20.910;2022-10-10T15:49:29;5.60;;;3.02;;
69220;SDS011;56331;51.992;20.910;2022-10-10T15:51:57;5.70;;;3.00;;
69220;SDS011;56331;51.992;20.910;2022-10-10T15:54:23;5.75;;;2.92;;
69220;SDS011;56331;51.992;20.910;2022-10-10T15:56:50;6.40;;;2.83;;
69220;SDS011;56331;51.992;20.910;2022-10-10T15:59:17;5.03;;;2.80;;
69220;SDS011;56331;51.992;20.910;2022-10-10T16:01:45;7.05;;;3.22;;
69220;SDS011;56331;51.992;20.910;2022-10-10T16:04:11;9.18;;;3.37;;
69220;SDS011;56331;51.992;20.910;2022-10-10T16:06:38;9.30;;;3.90;;
69220;SDS011;56331;51.992;20.910;2022-10-10T16:09:04;7.37;;;3.55;;
69220;SDS011;56331;51.992;20.910;2022-10-10T16:11:30;9.18;;;3.80;;
69220;SDS011;56331;51.992;20.910;2022-10-10T16:13:57;6.50;;;3.50;;
69220;SDS011;56331;51.992;20.910;2022-10-10T16:16:25;8.85;;;4.25;;
69220;SDS011;56331;51.992;20.910;2022-10-10T16:18:51;6.35;;;3.47;;
69220;SDS011;56331;51.992;20.910;2022-10-10T16:21:21;6.90;;;3.60;;
69220;SDS011;56331;51.992;20.910;2022-10-10T16:23:49;6.85;;;3.45;;
69220;SDS011;56331;51.992;20.910;2022-10-10T16:26:18;6.45;;;3.55;;
69220;SDS011;56331;51.992;20.910;2022-10-10T16:28:46;8.58;;;3.72;;
69220;SDS011;56331;51.992;20.910;2022-10-10T16:31:14;8.38;;;3.50;;
69220;SDS011;56331;51.992;20.910;2022-10-10T16:33:43;8.30;;;3.80;;
69220;SDS011;56331;51.992;20.910;2022-10-10T16:36:15;8.75;;;3.87;;
69220;SDS011;56331;51.992;20.910;2022-10-10T16:38:42;7.28;;;3.95;;
69220;SDS011;56331;51.992;20.910;2022-10-10T16:41:10;8.55;;;4.12;;
69220;SDS011;56331;51.992;20.910;2022-10-10T16:43:39;9.30;;;4.28;;
69220;SDS011;56331;51.992;20.910;2022-10-10T16:46:08;9.03;;;3.70;;
69220;SDS011;56331;51.992;20.910;2022-10-10T16:48:37;7.47;;;3.90;;
69220;SDS011;56331;51.992;20.910;2022-10-10T16:51:10;7.65;;;3.90;;
69220;SDS011;56331;51.992;20.910;2022-10-10T16:56:03;8.30;;;3.72;;
69220;SDS011;56331;51.992;20.910;2022-10-10T16:58:30;8.78;;;3.87;;
69220;SDS011;56331;51.992;20.910;2022-10-10T17:00:57;6.72;;;3.20;;
69220;SDS011;56331;51.992;20.910;2022-10-10T17:03:24;6.70;;;3.50;;
69220;SDS011;56331;51.992;20.910;2022-10-10T17:06:00;6.92;;;3.40;;
69220;SDS011;56331;51.992;20.910;2022-10-10T17:08:29;9.70;;;3.25;;
69220;SDS011;56331;51.992;20.910;2022-10-10T17:10:56;8.48;;;3.60;;
69220;SDS011;56331;51.992;20.910;2022-10-10T17:13:24;7.28;;;3.95;;
69220;SDS011;56331;51.992;20.910;2022-10-10T17:15:51;8.65;;;3.60;;
69220;SDS011;56331;51.992;20.910;2022-10-10T17:18:18;8.68;;;3.67;;